Time;durP1;ratioP1;P1;durP2;ratioP2;P2;SDS_P1;SDS_P2;PMS_P1;PMS_P2;Temp;Humidity;BMP_temperature;BMP_pressure;BME280_temperature;BME280_humidity;BME280_pressure;Samples;Min_cycle;Max_cycle;Signal;HPM_P1;HPM_P2
2022/05/26 07:58:57;;;;;;;12.40;10.57;;;;;;;15.85;75.27;101934.13;5230408;28;20916;-88
2022/05/26 08:01:28;;;;;;;14.50;11.20;;;;;;;15.81;75.33;101935.84;5218786;28;20038;-82
2022/05/26 08:03:59;;;;;;;15.05;10.80;;;;;;;15.75;75.40;101948.25;5207073;28;20025;-82
2022/05/26 08:06:31;;;;;;;22.38;20.05;;;;;;;15.85;74.86;101939.72;5280361;28;20088;-83
2022/05/26 08:09:03;;;;;;;13.63;11.13;;;;;;;15.78;74.33;101940.06;5295680;28;20067;-82
2022/05/26 08:11:34;;;;;;;15.27;10.50;;;;;;;15.95;73.84;101942.38;5204206;28;20021;-81
2022/05/26 08:14:06;;;;;;;13.93;10.27;;;;;;;16.10;73.84;101952.53;5265989;28;20077;-81
2022/05/26 08:16:38;;;;;;;13.88;10.88;;;;;;;16.12;74.59;101941.88;5264594;28;20034;-81
2022/05/26 08:19:09;;;;;;;14.05;10.82;;;;;;;16.00;74.60;101950.72;5225025;28;20032;-82
2022/05/26 08:21:41;;;;;;;13.80;10.93;;;;;;;16.11;73.96;101956.19;5251085;28;20100;-83
2022/05/26 08:24:12;;;;;;;13.25;11.15;;;;;;;16.11;72.76;101950.56;5286719;28;20032;-83
2022/05/26 08:26:43;;;;;;;13.70;11.07;;;;;;;16.38;73.01;101947.94;5263049;28;20041;-75
2022/05/26 08:29:14;;;;;;;10.70;9.52;;;;;;;16.45;70.92;101941.97;5227946;28;20030;-75
2022/05/26 08:31:46;;;;;;;14.15;9.85;;;;;;;16.43;70.69;101947.84;5301196;28;20109;-75
2022/05/26 08:34:17;;;;;;;15.40;8.90;;;;;;;16.63;69.93;101948.69;5224297;28;20034;-75
2022/05/26 08:36:48;;;;;;;13.50;11.40;;;;;;;16.74;70.61;101953.84;5227248;28;20093;-75
2022/05/26 08:39:20;;;;;;;10.73;9.05;;;;;;;16.87;68.81;101957.88;5303148;28;20031;-77
2022/05/26 08:41:53;;;;;;;11.25;8.63;;;;;;;16.91;68.23;101956.09;5229243;28;20026;-76
2022/05/26 08:44:31;;;;;;;13.65;8.85;;;;;;;16.97;67.97;101961.63;5192972;28;20434;-76
2022/05/26 08:47:08;;;;;;;16.95;13.18;;;;;;;16.94;68.65;101966.69;5212295;28;20031;-88
2022/05/26 08:49:57;;;;;;;15.18;12.75;;;;;;;17.20;68.72;101965.41;5251377;28;20020;-89
2022/05/26 08:52:33;;;;;;;20.92;18.58;;;;;;;17.11;68.10;101965.31;5227161;28;20048;-87
2022/05/26 08:55:11;;;;;;;21.58;17.17;;;;;;;17.09;67.93;101964.78;5229399;28;20040;-81
2022/05/26 08:57:46;;;;;;;17.95;16.13;;;;;;;17.02;67.04;101962.34;5240135;28;20042;-88
2022/05/26 09:00:21;;;;;;;15.73;14.13;;;;;;;17.25;68.00;101968.13;5271709;28;20379;-88
2022/05/26 09:02:55;;;;;;;15.00;13.35;;;;;;;17.07;67.23;101967.03;5220488;28;20086;-85
2022/05/26 09:05:35;;;;;;;19.00;13.93;;;;;;;17.07;67.26;101972.66;5240176;28;20096;-81
2022/05/26 09:14:28;;;;;;;18.48;16.67;;;;;;;17.28;66.75;101975.91;5185129;28;19914;-80
2022/05/26 09:17:10;;;;;;;17.95;15.80;;;;;;;17.42;66.31;101978.78;5271250;28;20032;-87
2022/05/26 09:19:44;;;;;;;17.00;15.23;;;;;;;17.39;65.54;101974.63;5201753;28;20025;-88
2022/05/26 09:22:38;;;;;;;17.15;15.52;;;;;;;17.47;66.30;101976.69;5203751;28;20463;-88
2022/05/26 09:25:29;;;;;;;16.58;14.32;;;;;;;17.51;65.56;101976.91;5196581;28;20022;-87
2022/05/26 09:28:01;;;;;;;16.33;14.25;;;;;;;17.41;65.13;101982.69;5194573;28;20038;-85
2022/05/26 09:30:33;;;;;;;17.02;15.25;;;;;;;17.35;64.91;101980.00;5202565;28;20102;-88
2022/05/26 09:33:25;;;;;;;17.75;14.02;;;;;;;17.57;64.57;101992.50;5202978;28;20492;-86
2022/05/26 09:36:24;;;;;;;16.58;13.93;;;;;;;17.78;64.27;101999.38;5199480;28;20060;-89
2022/05/26 09:38:57;;;;;;;30.15;26.30;;;;;;;17.68;63.32;102008.00;5281224;28;20128;-74
2022/05/26 09:41:41;;;;;;;17.50;15.77;;;;;;;17.65;63.63;102000.19;5218828;28;20055;-77
2022/05/26 09:44:44;;;;;;;16.90;14.75;;;;;;;17.66;63.74;102006.63;5207241;28;20025;-77
2022/05/26 09:47:35;;;;;;;17.05;15.27;;;;;;;17.74;63.24;102003.97;5213627;28;20047;-76
2022/05/26 09:50:10;;;;;;;25.38;21.10;;;;;;;17.68;61.76;102019.22;5250654;28;20059;-77
2022/05/26 09:52:49;;;;;;;13.55;11.60;;;;;;;17.66;62.98;102013.06;5230815;28;20039;-77
2022/05/26 09:55:24;;;;;;;14.98;13.55;;;;;;;17.50;63.63;102014.50;5216747;28;20469;-81
2022/05/26 09:58:09;;;;;;;14.48;13.10;;;;;;;17.51;63.88;102005.81;5252352;28;20040;-89
2022/05/26 10:00:46;;;;;;;13.23;12.00;;;;;;;17.71;62.65;102012.16;5208291;28;20045;-88
2022/05/26 10:03:58;;;;;;;12.70;11.52;;;;;;;18.01;61.67;102007.94;5224122;28;20022;-86
2022/05/26 10:06:32;;;;;;;12.60;11.25;;;;;;;17.93;59.30;102005.88;5238941;28;20496;-80
2022/05/26 10:09:16;;;;;;;22.15;19.80;;;;;;;17.96;60.74;102011.69;5225443;28;20034;-80
2022/05/26 10:12:09;;;;;;;13.65;12.35;;;;;;;18.03;60.72;102017.72;5188492;28;20030;-82
2022/05/26 10:15:19;;;;;;;11.77;10.52;;;;;;;18.32;59.41;102010.09;5270609;28;20024;-82
2022/05/26 10:17:56;;;;;;;15.65;9.43;;;;;;;18.25;58.45;102018.94;5195609;28;20076;-87
2022/05/26 10:20:51;;;;;;;12.20;11.20;;;;;;;18.22;58.79;102005.53;5271950;28;20471;-85
2022/05/26 10:23:43;;;;;;;12.05;10.88;;;;;;;18.20;60.19;102024.66;5212604;28;20042;-87
2022/05/26 10:26:43;;;;;;;12.52;11.20;;;;;;;18.16;60.62;102027.28;5201123;28;20030;-86
2022/05/26 10:29:41;;;;;;;14.52;11.35;;;;;;;18.42;60.87;102015.50;5187773;28;20492;-88
2022/05/26 10:32:29;;;;;;;8.98;8.07;;;;;;;18.56;57.12;102005.06;5252093;28;20425;-89
2022/05/26 10:35:19;;;;;;;11.90;9.18;;;;;;;18.69;57.33;102021.06;5210009;28;20129;-84
2022/05/26 10:38:21;;;;;;;11.77;10.10;;;;;;;18.63;58.02;102019.50;5193394;28;20026;-86
2022/05/26 10:41:12;;;;;;;11.45;10.25;;;;;;;18.52;58.68;102020.88;5280515;28;20032;-89
2022/05/26 10:43:49;;;;;;;15.07;9.82;;;;;;;18.54;59.50;102014.97;5195141;28;20079;-87
2022/05/26 10:46:27;;;;;;;10.15;9.25;;;;;;;18.73;59.08;102006.38;5256779;28;20356;-87
2022/05/26 10:49:18;;;;;;;12.00;9.38;;;;;;;18.80;57.15;102015.22;5217943;28;20038;-86
2022/05/26 10:51:55;;;;;;;10.43;9.43;;;;;;;18.77;56.47;102015.88;5195188;28;20025;-85
2022/05/26 10:54:55;;;;;;;10.25;8.65;;;;;;;18.98;56.87;102013.41;5275725;28;20020;-86
2022/05/26 10:57:41;;;;;;;8.98;8.05;;;;;;;19.24;57.58;102005.13;5260561;28;20047;-86
2022/05/26 11:00:17;;;;;;;10.60;7.65;;;;;;;19.18;56.73;102017.69;5223343;28;20031;-86
2022/05/26 11:03:02;;;;;;;10.48;7.72;;;;;;;18.99;57.48;102010.25;5193820;28;20090;-82
2022/05/26 11:05:39;;;;;;;18.38;16.40;;;;;;;18.97;57.75;102023.81;5200281;28;20026;-83
2022/05/26 11:08:33;;;;;;;8.27;6.68;;;;;;;18.99;57.93;102018.69;5225877;28;20377;-85
2022/05/26 11:11:38;;;;;;;12.82;7.78;;;;;;;19.18;58.25;102026.94;5220453;28;20056;-87
2022/05/26 11:17:33;;;;;;;12.50;9.10;;;;;;;19.07;56.33;102017.09;5210128;28;20038;-86
2022/05/26 11:20:20;;;;;;;10.20;8.82;;;;;;;19.09;56.21;102015.59;5221931;28;20105;-87
2022/05/26 11:22:53;;;;;;;10.93;8.02;;;;;;;19.19;55.92;102024.97;5227538;28;20029;-88
2022/05/26 11:26:04;;;;;;;11.00;8.30;;;;;;;19.26;56.18;102026.16;5208543;28;20030;-88
2022/05/26 11:28:43;;;;;;;10.18;8.38;;;;;;;19.11;54.58;102012.50;5283743;28;20036;-89
2022/05/26 11:37:29;;;;;;;9.23;8.35;;;;;;;18.81;55.15;102008.44;5212181;28;20113;-81
2022/05/26 11:40:06;;;;;;;9.13;8.20;;;;;;;18.77;55.68;102011.06;5276127;28;20088;-81
2022/05/26 11:42:54;;;;;;;9.63;7.72;;;;;;;18.72;56.44;102013.16;5200030;28;20461;-90
2022/05/26 11:45:33;;;;;;;8.48;7.57;;;;;;;18.64;56.75;102012.75;5226530;28;20030;-87
2022/05/26 11:48:30;;;;;;;9.40;7.72;;;;;;;18.64;56.78;102009.13;5226290;28;20033;-89
2022/05/26 11:51:23;;;;;;;10.38;8.50;;;;;;;18.66;57.18;102007.66;5210360;28;20031;-87
2022/05/26 11:53:55;;;;;;;8.68;7.97;;;;;;;18.86;56.95;101997.09;5209048;28;20030;-87
2022/05/26 11:56:30;;;;;;;9.20;7.90;;;;;;;18.99;55.82;101993.38;5218927;28;20014;-88
2022/05/26 11:59:31;;;;;;;11.98;8.60;;;;;;;19.07;55.76;101995.44;5225845;28;20044;-81
2022/05/26 12:02:06;;;;;;;9.00;8.18;;;;;;;19.10;55.55;101986.38;5191441;28;20061;-85
2022/05/26 12:04:41;;;;;;;10.38;7.80;;;;;;;19.15;55.95;101987.38;5240453;28;20077;-85
2022/05/26 12:07:17;;;;;;;8.68;6.75;;;;;;;19.33;54.90;101992.81;5235463;28;20076;-88
2022/05/26 12:09:59;;;;;;;7.28;5.88;;;;;;;19.49;54.71;101990.41;5194237;28;20038;-90
2022/05/26 12:12:33;;;;;;;8.88;6.97;;;;;;;19.50;53.11;101989.25;5210791;28;20026;-87
2022/05/26 12:15:24;;;;;;;14.30;11.18;;;;;;;19.72;53.81;101984.75;5236046;28;20027;-87
2022/05/26 12:17:58;;;;;;;7.85;5.10;;;;;;;19.49;54.29;101981.13;5196124;28;20034;-86
2022/05/26 12:20:33;;;;;;;10.00;5.22;;;;;;;19.42;54.69;101987.22;5264385;28;20024;-78
2022/05/26 12:23:05;;;;;;;12.82;8.45;;;;;;;19.50;54.02;101980.78;5238162;28;20026;-77
2022/05/26 12:25:39;;;;;;;8.00;4.43;;;;;;;19.68;53.29;101983.72;5236474;28;20026;-76
2022/05/26 12:28:10;;;;;;;10.30;5.70;;;;;;;19.84;52.68;101979.34;5251211;28;20282;-77
2022/05/26 12:31:01;;;;;;;7.03;5.17;;;;;;;19.83;52.96;101982.47;5251733;28;20030;-79
2022/05/26 12:33:52;;;;;;;7.05;4.45;;;;;;;19.79;53.23;101973.00;5201559;28;20770;-86
2022/05/26 12:36:45;;;;;;;7.38;4.13;;;;;;;19.83;53.89;101966.41;5219533;28;20046;-85
2022/05/26 12:39:43;;;;;;;7.93;4.05;;;;;;;19.85;53.71;101964.09;5288463;28;20071;-83
2022/05/26 12:42:23;;;;;;;8.52;4.63;;;;;;;19.84;53.33;101967.22;5203009;28;20038;-86
2022/05/26 12:45:14;;;;;;;10.15;4.43;;;;;;;19.75;53.39;101965.22;5207834;28;20030;-86
2022/05/26 12:48:09;;;;;;;7.07;4.07;;;;;;;19.77;53.27;101981.78;5206237;28;20030;-87
2022/05/26 12:50:42;;;;;;;9.15;3.72;;;;;;;19.71;53.66;101980.25;5210394;28;20425;-90
2022/05/26 12:53:35;;;;;;;5.93;3.40;;;;;;;19.90;54.06;101980.84;5273260;28;20018;-87
2022/05/26 12:56:15;;;;;;;7.97;3.78;;;;;;;19.92;54.04;101978.53;5210431;28;20507;-87
2022/05/26 12:58:59;;;;;;;7.95;3.97;;;;;;;20.02;53.35;101968.13;5249470;28;20051;-86
2022/05/26 13:01:31;;;;;;;8.90;4.03;;;;;;;20.08;53.34;101973.28;5229506;28;20030;-86
2022/05/26 13:04:09;;;;;;;7.93;3.67;;;;;;;20.45;53.06;101965.38;5279371;28;20099;-86
2022/05/26 13:06:49;;;;;;;8.90;3.97;;;;;;;20.36;51.06;101965.38;5267971;28;20020;-85
2022/05/26 13:09:25;;;;;;;6.65;3.60;;;;;;;20.28;51.93;101969.03;5233749;28;20034;-90
2022/05/26 13:12:00;;;;;;;8.10;3.75;;;;;;;20.33;51.70;101968.88;5247320;28;20440;-84
2022/05/26 13:14:49;;;;;;;6.65;3.60;;;;;;;20.48;51.85;101963.91;5265094;28;20030;-89
2022/05/26 13:17:23;;;;;;;7.50;3.50;;;;;;;20.36;50.66;101958.94;5206871;28;20046;-91
2022/05/26 13:20:03;;;;;;;11.25;4.78;;;;;;;20.46;50.58;101977.50;5246479;28;20442;-90
2022/05/26 13:22:37;;;;;;;7.78;4.55;;;;;;;20.36;49.89;101968.19;5287799;28;20026;-89
2022/05/26 13:25:13;;;;;;;9.30;4.25;;;;;;;20.41;50.13;101959.59;5217604;28;20034;-87
2022/05/26 13:28:06;;;;;;;7.30;3.78;;;;;;;20.54;50.18;101963.44;5189671;28;20075;-89
2022/05/26 13:33:49;;;;;;;6.90;3.00;;;;;;;20.30;51.58;101958.25;5203606;28;20027;-91
2022/05/26 13:36:33;;;;;;;5.80;2.65;;;;;;;20.41;51.85;101953.13;5261797;28;20465;-88
2022/05/26 13:39:22;;;;;;;9.20;3.83;;;;;;;20.41;50.49;101953.97;5244639;28;20045;-83
2022/05/26 13:41:54;;;;;;;6.57;3.40;;;;;;;20.19;50.83;101954.09;5191494;28;20022;-85
2022/05/26 13:44:44;;;;;;;7.25;3.70;;;;;;;20.29;51.36;101965.03;5213996;28;20018;-86
2022/05/26 13:47:17;;;;;;;7.82;3.83;;;;;;;20.22;50.96;101956.25;5237338;28;20125;-85
2022/05/26 13:50:06;;;;;;;6.35;3.10;;;;;;;20.19;51.45;101951.28;5211510;28;20037;-85
2022/05/26 13:52:46;;;;;;;9.45;4.13;;;;;;;20.24;51.75;101959.56;5203390;28;20033;-87
2022/05/26 13:55:22;;;;;;;7.03;2.97;;;;;;;20.35;52.12;101955.28;5288416;28;20027;-87
2022/05/26 13:57:57;;;;;;;5.90;3.45;;;;;;;20.31;51.20;101953.44;5202741;28;20042;-87
2022/05/26 14:00:32;;;;;;;9.50;3.45;;;;;;;20.21;50.63;101940.50;5221624;28;20095;-86
2022/05/26 14:03:22;;;;;;;9.90;3.28;;;;;;;20.27;51.19;101930.72;5284243;28;20023;-85
2022/05/26 14:06:09;;;;;;;9.32;2.85;;;;;;;20.24;51.11;101928.56;5196365;28;20075;-86
2022/05/26 14:08:55;;;;;;;10.93;3.95;;;;;;;20.27;51.02;101936.38;5203188;28;20057;-86
2022/05/26 14:11:45;;;;;;;;;;;;;;;20.16;51.78;101927.41;5227229;28;20380;-86
2022/05/26 14:14:40;;;;;;;6.90;2.83;;;;;;;20.11;51.56;101915.47;5266175;28;20329;-85
2022/05/26 14:17:30;;;;;;;5.97;3.85;;;;;;;20.06;51.77;101916.47;5288699;28;20028;-84
2022/05/26 14:20:20;;;;;;;6.45;2.80;;;;;;;20.03;51.43;101922.75;5193268;28;20026;-86
2022/05/26 14:22:53;;;;;;;6.05;3.58;;;;;;;20.11;51.38;101921.13;5276267;28;20016;-85
2022/05/26 14:25:26;;;;;;;5.70;2.85;;;;;;;20.14;50.92;101915.63;5196289;28;20027;-85
2022/05/26 14:28:04;;;;;;;9.27;2.78;;;;;;;20.13;51.85;101918.81;5187957;28;20018;-84
2022/05/26 14:30:35;;;;;;;8.32;2.78;;;;;;;20.08;51.57;101916.97;5194863;28;20022;-83
2022/05/26 14:33:21;;;;;;;4.80;2.93;;;;;;;20.11;51.78;101923.94;5193576;28;20054;-90
2022/05/26 14:35:53;;;;;;;9.00;3.63;;;;;;;20.06;51.23;101913.63;5179492;28;20737;-89
2022/05/26 14:38:25;;;;;;;8.43;3.33;;;;;;;20.01;51.31;101912.97;5202594;28;20042;-84
2022/05/26 14:40:56;;;;;;;7.97;2.67;;;;;;;20.01;50.89;101918.59;5193115;28;20035;-83
2022/05/26 14:43:34;;;;;;;8.32;2.83;;;;;;;19.98;51.45;101909.66;5225276;28;20396;-82
2022/05/26 14:46:05;;;;;;;6.40;2.40;;;;;;;20.05;52.02;101902.72;5274554;28;20056;-81
2022/05/26 14:48:36;;;;;;;7.90;2.95;;;;;;;20.08;51.49;101896.44;5206958;28;20024;-87
2022/05/26 14:51:08;;;;;;;12.93;4.45;;;;;;;20.11;51.77;101898.59;5194276;28;20080;-83
2022/05/26 14:56:30;;;;;;;6.93;2.35;;;;;;;20.02;51.46;101894.91;5219029;28;20435;-82
2022/05/26 14:59:02;;;;;;;4.65;2.50;;;;;;;20.03;51.36;101899.41;5197585;28;20030;-83
2022/05/26 15:01:33;;;;;;;6.70;3.35;;;;;;;20.10;51.61;101892.13;5199375;28;20091;-84
2022/05/26 15:04:05;;;;;;;6.30;2.70;;;;;;;20.12;51.83;101887.00;5248280;28;20113;-84
2022/05/26 15:06:43;;;;;;;6.72;2.80;;;;;;;20.18;52.17;101893.31;5243810;28;20422;-85
2022/05/26 15:09:21;;;;;;;6.20;2.35;;;;;;;20.26;52.07;101886.84;5211936;28;20361;-83
2022/05/26 15:11:54;;;;;;;6.43;2.53;;;;;;;20.19;51.65;101889.31;5199679;28;20497;-83
2022/05/26 15:14:28;;;;;;;8.10;2.42;;;;;;;20.10;51.84;101882.84;5249887;28;20024;-83
2022/05/26 15:17:03;;;;;;;13.30;6.70;;;;;;;20.16;52.24;101892.78;5203949;28;20049;-83
2022/05/26 15:19:42;;;;;;;6.00;2.57;;;;;;;20.12;52.21;101880.53;5230146;28;20447;-83
2022/05/26 15:22:15;;;;;;;5.97;2.50;;;;;;;20.24;52.06;101889.16;5189834;28;20022;-84
2022/05/26 15:24:48;;;;;;;4.97;2.60;;;;;;;20.19;51.83;101878.03;5211704;28;20026;-84
2022/05/26 15:27:25;;;;;;;8.30;2.60;;;;;;;20.20;51.92;101869.28;5215657;28;20030;-83
2022/05/26 15:29:56;;;;;;;8.60;3.33;;;;;;;20.26;52.46;101872.75;5205447;28;20026;-83
2022/05/26 15:32:37;;;;;;;10.02;3.05;;;;;;;20.39;52.96;101876.56;5188971;28;20042;-83
2022/05/26 15:35:14;;;;;;;5.80;3.38;;;;;;;20.23;51.95;101872.59;5191050;28;20023;-83
2022/05/26 15:37:47;;;;;;;6.65;2.58;;;;;;;20.29;52.53;101863.63;5202629;28;20034;-83
2022/05/26 15:40:22;;;;;;;7.20;2.25;;;;;;;20.34;51.64;101860.66;5210731;28;20469;-84
2022/05/26 15:42:53;;;;;;;6.20;2.30;;;;;;;20.33;52.27;101861.00;5206688;28;20075;-83
2022/05/26 15:45:24;;;;;;;9.20;3.13;;;;;;;20.28;52.00;101859.16;5224635;28;20117;-84
2022/05/26 15:47:58;;;;;;;16.60;2.83;;;;;;;20.33;52.43;101864.63;5230325;28;20033;-83
2022/05/26 15:50:31;;;;;;;7.53;2.45;;;;;;;20.27;52.32;101857.50;5204154;28;20429;-83
2022/05/26 15:53:02;;;;;;;4.35;2.15;;;;;;;20.35;52.58;101848.25;5281361;28;20395;-83
2022/05/26 15:55:34;;;;;;;9.93;2.95;;;;;;;20.36;52.86;101855.53;5206927;28;20117;-81
2022/05/26 15:58:05;;;;;;;5.47;2.75;;;;;;;20.29;52.73;101846.72;5196537;28;20050;-84
2022/05/26 16:00:36;;;;;;;6.38;2.50;;;;;;;20.24;52.89;101852.53;5204877;28;20033;-84
2022/05/26 16:03:09;;;;;;;6.00;1.92;;;;;;;20.07;53.28;101860.97;5192319;28;20027;-84
2022/05/26 16:05:40;;;;;;;5.32;2.30;;;;;;;20.03;53.93;101857.16;5206745;28;20034;-85
2022/05/26 16:08:12;;;;;;;10.13;3.35;;;;;;;20.02;53.73;101864.78;5188550;28;20022;-83
2022/05/26 16:10:46;;;;;;;11.00;2.22;;;;;;;19.95;54.03;101856.81;5209965;28;20419;-83
2022/05/26 16:13:18;;;;;;;11.90;2.90;;;;;;;19.89;53.87;101860.97;5197729;28;20423;-82
2022/05/26 16:15:50;;;;;;;8.40;2.45;;;;;;;19.78;54.57;101856.78;5206764;28;20038;-83
2022/05/26 16:18:21;;;;;;;13.82;3.25;;;;;;;19.83;54.90;101856.63;5186614;28;20030;-84
2022/05/26 16:20:52;;;;;;;8.30;2.20;;;;;;;19.80;55.03;101854.47;5205656;28;20039;-82
2022/05/26 16:23:25;;;;;;;9.70;1.77;;;;;;;19.79;54.60;101861.28;5191349;28;20030;-82
2022/05/26 16:25:58;;;;;;;9.23;3.25;;;;;;;19.76;55.00;101853.47;5188233;28;20117;-83
2022/05/26 16:28:29;;;;;;;11.45;2.70;;;;;;;19.72;55.07;101852.50;5193011;28;20027;-82
2022/05/26 16:31:01;;;;;;;10.43;2.83;;;;;;;19.71;54.88;101859.25;5192660;28;20049;-83
2022/05/26 16:33:33;;;;;;;10.90;2.92;;;;;;;19.70;55.24;101860.41;5192316;28;20483;-81
2022/05/26 16:38:55;;;;;;;7.95;2.25;;;;;;;19.63;55.15;101854.41;5223345;28;20521;-82
2022/05/26 16:41:28;;;;;;;7.65;2.60;;;;;;;19.54;55.63;101858.03;5191828;28;20055;-84
2022/05/26 16:44:02;;;;;;;9.23;2.58;;;;;;;19.56;55.40;101854.91;5255654;28;20046;-82
2022/05/26 16:46:35;;;;;;;8.68;2.13;;;;;;;19.54;55.63;101860.84;5261930;28;20023;-85
2022/05/26 16:49:07;;;;;;;9.88;2.20;;;;;;;19.50;55.65;101862.63;5217975;28;20147;-82
2022/05/26 16:51:42;;;;;;;8.10;1.90;;;;;;;19.54;55.55;101866.47;5226877;28;20062;-85
2022/05/26 16:54:29;;;;;;;11.70;2.22;;;;;;;19.51;56.06;101853.06;5257846;28;20032;-84
2022/05/26 16:57:00;;;;;;;12.02;3.30;;;;;;;19.47;55.87;101863.28;5266518;28;20089;-83
2022/05/26 16:59:32;;;;;;;8.93;2.53;;;;;;;19.41;56.45;101858.16;5231304;28;20142;-83
2022/05/26 17:02:05;;;;;;;12.52;2.40;;;;;;;19.36;56.66;101856.31;5208814;28;20034;-84
2022/05/26 17:04:36;;;;;;;12.00;2.40;;;;;;;19.31;56.84;101860.09;5231168;28;20020;-82
2022/05/26 17:07:08;;;;;;;7.63;2.20;;;;;;;19.27;57.28;101861.88;5213434;28;20022;-82
2022/05/26 17:09:39;;;;;;;6.57;2.25;;;;;;;19.24;57.55;101862.53;5252861;28;20053;-83
2022/05/26 17:12:12;;;;;;;4.15;1.83;;;;;;;19.29;57.87;101855.94;5256407;28;20387;-80
2022/05/26 17:23:13;;;;;;;7.60;2.15;;;;;;;19.20;58.54;101857.88;5200883;28;20034;-79
2022/05/26 17:25:44;;;;;;;5.65;1.90;;;;;;;19.24;58.24;101873.78;5207668;28;20033;-81
2022/05/26 17:28:15;;;;;;;4.90;1.75;;;;;;;19.23;58.90;101883.41;5208790;28;20026;-83
